createdAt,value
2017-08-13T00:01:46.986Z,22.90
2017-08-13T00:04:14.463Z,22.90
2017-08-13T00:06:42.727Z,23.10
2017-08-13T00:09:10.965Z,23.20
2017-08-13T00:11:38.460Z,23.10
2017-08-13T00:14:06.726Z,23.00
2017-08-13T00:16:34.207Z,23.00
2017-08-13T00:19:02.449Z,23.30
2017-08-13T00:21:29.938Z,23.20
2017-08-13T00:23:58.193Z,23.30
2017-08-13T00:26:25.679Z,23.30
2017-08-13T00:28:53.955Z,23.20
2017-08-13T00:31:22.202Z,23.20
2017-08-13T00:33:49.682Z,23.10
2017-08-13T00:36:17.961Z,22.80
2017-08-13T00:38:46.209Z,23.00
2017-08-13T00:41:13.800Z,22.90
2017-08-13T00:43:42.075Z,22.90
2017-08-13T00:46:10.364Z,22.90
2017-08-13T00:48:38.609Z,23.00
2017-08-13T00:51:06.102Z,22.90
2017-08-13T00:53:34.353Z,22.70
2017-08-13T00:56:01.834Z,22.60
2017-08-13T00:58:30.102Z,22.30
2017-08-13T01:00:57.583Z,22.20
2017-08-13T01:03:25.071Z,22.20
2017-08-13T01:05:52.574Z,22.10
2017-08-13T01:08:20.056Z,22.50
2017-08-13T01:10:47.531Z,22.30
2017-08-13T01:13:15.062Z,22.30
2017-08-13T01:15:42.554Z,22.30
2017-08-13T01:18:10.025Z,22.10
2017-08-13T01:20:37.508Z,22.00
2017-08-13T01:23:04.991Z,21.90
2017-08-13T01:25:33.246Z,21.50
2017-08-13T01:28:00.735Z,21.50
2017-08-13T01:30:28.986Z,21.20
2017-08-13T01:32:56.475Z,21.10
2017-08-13T01:35:24.746Z,21.10
2017-08-13T01:37:53.009Z,20.90
2017-08-13T01:40:20.481Z,20.80
2017-08-13T01:42:48.754Z,20.70
2017-08-13T01:45:17.003Z,20.60
2017-08-13T01:47:44.512Z,20.50
2017-08-13T01:50:12.001Z,20.70
2017-08-13T01:52:39.478Z,20.70
2017-08-13T01:55:06.965Z,21.00
2017-08-13T01:57:35.247Z,21.20
2017-08-13T02:00:03.516Z,21.10
2017-08-13T02:02:31.769Z,20.80
2017-08-13T02:04:59.270Z,20.80
2017-08-13T02:07:27.533Z,21.20
2017-08-13T02:09:55.786Z,21.20
2017-08-13T02:12:23.281Z,21.20
2017-08-13T02:14:51.528Z,21.00
2017-08-13T02:17:19.003Z,20.90
2017-08-13T02:19:47.265Z,20.90
2017-08-13T02:22:14.762Z,20.80
2017-08-13T02:24:42.244Z,20.70
2017-08-13T02:27:09.726Z,20.50
2017-08-13T02:29:37.218Z,20.80
2017-08-13T02:32:05.708Z,20.90
2017-08-13T02:34:50.594Z,20.90
2017-08-13T02:37:18.067Z,20.80
2017-08-13T02:39:45.558Z,20.60
2017-08-13T02:42:13.060Z,20.60
2017-08-13T02:44:41.310Z,20.50
2017-08-13T02:47:08.791Z,20.40
2017-08-13T02:49:37.051Z,20.50
2017-08-13T02:52:04.522Z,20.50
2017-08-13T02:54:32.767Z,20.40
2017-08-13T02:57:00.258Z,20.30
2017-08-13T02:59:28.503Z,20.40
2017-08-13T03:01:55.982Z,20.40
2017-08-13T03:04:23.466Z,20.70
2017-08-13T03:06:50.950Z,20.60
2017-08-13T03:09:18.417Z,20.50
2017-08-13T03:11:45.921Z,20.40
2017-08-13T03:14:14.175Z,20.20
2017-08-13T03:16:41.654Z,20.20
2017-08-13T03:19:09.157Z,20.30
2017-08-13T03:21:36.642Z,20.40
2017-08-13T03:24:04.124Z,20.40
2017-08-13T03:26:32.402Z,20.50
2017-08-13T03:28:59.892Z,20.50
2017-08-13T03:31:27.383Z,20.60
2017-08-13T03:33:54.874Z,20.20
2017-08-13T03:36:22.356Z,20.10
2017-08-13T03:38:50.600Z,20.10
2017-08-13T03:41:18.088Z,20.00
2017-08-13T03:43:46.342Z,20.10
2017-08-13T03:46:13.819Z,20.00
2017-08-13T03:48:42.088Z,19.90
2017-08-13T03:51:09.601Z,19.90
2017-08-13T03:53:37.078Z,19.90
2017-08-13T03:56:04.574Z,19.80
2017-08-13T03:58:32.836Z,19.80
2017-08-13T04:01:00.328Z,19.70
2017-08-13T04:03:27.818Z,19.70
2017-08-13T04:05:55.682Z,19.90
2017-08-13T04:08:23.160Z,19.80
2017-08-13T04:10:50.660Z,20.00
2017-08-13T04:13:18.912Z,19.90
2017-08-13T04:15:46.381Z,19.80
2017-08-13T04:18:13.877Z,20.00
2017-08-13T04:20:41.356Z,20.10
2017-08-13T04:23:08.841Z,20.90
2017-08-13T04:25:36.334Z,21.00
2017-08-13T04:28:04.583Z,20.70
2017-08-13T04:30:32.067Z,20.60
2017-08-13T04:33:00.347Z,21.80
2017-08-13T04:35:28.606Z,21.80
2017-08-13T04:37:56.095Z,21.80
2017-08-13T04:40:23.586Z,21.90
2017-08-13T04:42:51.070Z,21.30
2017-08-13T04:45:18.551Z,21.60
2017-08-13T04:47:46.818Z,20.60
2017-08-13T04:50:14.310Z,20.60
2017-08-13T04:52:41.793Z,20.40
2017-08-13T04:55:09.327Z,20.40
2017-08-13T04:57:36.811Z,20.60
2017-08-13T05:00:04.296Z,20.40
2017-08-13T05:02:31.795Z,20.60
2017-08-13T05:05:00.064Z,20.40
2017-08-13T05:07:28.313Z,20.60
2017-08-13T05:09:55.812Z,20.50
2017-08-13T05:12:23.308Z,20.90
2017-08-13T05:14:50.795Z,21.30
2017-08-13T05:17:18.281Z,21.30
2017-08-13T05:19:46.514Z,21.00
2017-08-13T05:22:13.997Z,21.00
2017-08-13T05:24:41.490Z,20.60
2017-08-13T05:27:08.980Z,21.30
2017-08-13T05:29:36.507Z,20.60
2017-08-13T05:32:04.020Z,20.60
2017-08-13T05:34:31.494Z,20.90
2017-08-13T05:36:58.971Z,21.20
2017-08-13T05:39:27.240Z,21.40
2017-08-13T05:41:55.489Z,21.10
2017-08-13T05:44:22.978Z,21.00
2017-08-13T05:46:51.255Z,20.90
2017-08-13T05:49:19.512Z,21.00
2017-08-13T05:51:47.000Z,21.00
2017-08-13T05:54:15.267Z,20.90
2017-08-13T05:56:43.510Z,20.70
2017-08-13T05:59:10.991Z,20.70
2017-08-13T06:01:38.483Z,21.00
2017-08-13T06:04:05.958Z,20.80
2017-08-13T06:06:33.451Z,20.60
2017-08-13T06:09:00.938Z,20.30
2017-08-13T06:11:29.203Z,20.80
2017-08-13T06:13:56.674Z,20.80
2017-08-13T06:16:24.934Z,20.80
2017-08-13T06:18:52.415Z,20.80
2017-08-13T06:21:20.667Z,20.90
2017-08-13T06:23:48.154Z,20.80
2017-08-13T06:26:16.418Z,21.20
2017-08-13T06:28:43.898Z,21.20
2017-08-13T06:31:11.396Z,21.20
2017-08-13T06:33:38.879Z,21.30
2017-08-13T06:36:06.367Z,21.50
2017-08-13T06:38:34.640Z,21.80
2017-08-13T06:41:02.896Z,22.00
2017-08-13T06:43:30.384Z,22.00
2017-08-13T06:45:58.653Z,22.40
2017-08-13T06:48:26.906Z,22.30
2017-08-13T06:50:54.383Z,22.30
2017-08-13T06:53:22.678Z,22.20
2017-08-13T06:55:50.933Z,22.20
2017-08-13T06:58:18.406Z,22.10
2017-08-13T07:00:46.657Z,21.80
2017-08-13T07:03:14.146Z,21.80
2017-08-13T07:05:42.398Z,22.40
2017-08-13T07:08:09.883Z,22.30
2017-08-13T07:10:38.159Z,22.50
2017-08-13T07:13:06.418Z,22.40
2017-08-13T07:15:33.917Z,22.30
2017-08-13T07:18:01.398Z,22.10
2017-08-13T07:20:28.883Z,22.00
2017-08-13T07:22:56.396Z,22.10
2017-08-13T07:25:23.878Z,22.10
2017-08-13T07:27:51.365Z,22.10
2017-08-13T07:30:18.855Z,22.10
2017-08-13T07:32:46.349Z,22.10
2017-08-13T07:35:13.839Z,22.10
2017-08-13T07:37:41.341Z,22.30
2017-08-13T07:40:08.818Z,22.20
2017-08-13T07:42:36.317Z,22.20
2017-08-13T07:45:03.810Z,22.20
2017-08-13T07:47:32.058Z,22.40
2017-08-13T07:49:59.543Z,22.40
2017-08-13T07:52:27.797Z,22.70
2017-08-13T07:54:55.278Z,22.70
2017-08-13T07:57:23.517Z,23.10
2017-08-13T07:59:51.010Z,23.00
2017-08-13T08:02:19.266Z,23.20
2017-08-13T08:04:46.739Z,23.10
2017-08-13T08:07:15.010Z,23.10
2017-08-13T08:09:43.263Z,23.00
2017-08-13T08:12:10.741Z,23.00
2017-08-13T08:14:38.245Z,23.30
2017-08-13T08:17:05.725Z,23.40
2017-08-13T08:19:33.201Z,23.40
2017-08-13T08:22:00.696Z,23.50
2017-08-13T08:24:28.942Z,23.60
2017-08-13T08:26:56.420Z,23.60
2017-08-13T08:29:24.684Z,23.40
2017-08-13T08:31:52.170Z,23.40
2017-08-13T08:34:19.641Z,23.50
2017-08-13T08:36:47.134Z,23.60
2017-08-13T08:39:14.615Z,23.50
2017-08-13T08:41:42.092Z,23.60
2017-08-13T08:44:10.359Z,23.80
2017-08-13T08:46:37.843Z,23.80
2017-08-13T08:49:05.323Z,23.90
2017-08-13T08:51:32.818Z,24.10
2017-08-13T08:54:00.304Z,24.30
2017-08-13T08:56:28.566Z,24.40
2017-08-13T08:58:56.058Z,24.30
2017-08-13T09:01:23.538Z,24.30
2017-08-13T09:03:51.024Z,24.40
2017-08-13T09:06:18.527Z,24.30
2017-08-13T09:08:46.774Z,24.30
2017-08-13T09:11:14.253Z,24.30
2017-08-13T09:13:42.501Z,24.60
2017-08-13T09:16:09.991Z,24.50
2017-08-13T09:18:38.240Z,24.80
2017-08-13T09:21:05.725Z,24.70
2017-08-13T09:23:33.978Z,24.90
2017-08-13T09:26:01.459Z,24.90
2017-08-13T09:28:29.720Z,24.80
2017-08-13T09:30:57.193Z,24.80
2017-08-13T09:33:25.443Z,24.90
2017-08-13T09:35:52.925Z,24.80
2017-08-13T09:38:20.412Z,24.90
2017-08-13T09:40:47.889Z,25.10
2017-08-13T09:43:15.392Z,24.90
2017-08-13T09:45:42.870Z,25.00
2017-08-13T09:48:11.114Z,25.10
2017-08-13T09:50:38.603Z,25.10
2017-08-13T09:53:06.859Z,25.20
2017-08-13T09:55:34.337Z,25.20
2017-08-13T09:58:02.603Z,28.20
2017-08-13T10:00:30.100Z,28.20
2017-08-13T10:02:57.587Z,29.70
2017-08-13T10:05:25.079Z,30.80
2017-08-13T10:07:52.554Z,30.70
2017-08-13T10:10:20.041Z,30.80
2017-08-13T10:12:47.548Z,30.10
2017-08-13T10:15:15.034Z,29.10
2017-08-13T10:17:42.510Z,28.00
2017-08-13T10:20:10.014Z,27.60
2017-08-13T10:22:37.503Z,27.40
2017-08-13T10:25:04.986Z,27.60
2017-08-13T10:27:32.486Z,27.90
2017-08-13T10:29:59.965Z,27.80
2017-08-13T10:32:27.447Z,27.70
2017-08-13T10:34:55.710Z,27.80
2017-08-13T10:37:23.191Z,27.80
2017-08-13T10:39:50.671Z,27.40
2017-08-13T10:42:18.161Z,27.60
2017-08-13T10:44:45.642Z,27.60
2017-08-13T10:47:13.906Z,27.20
2017-08-13T10:49:41.407Z,27.20
2017-08-13T10:52:09.663Z,27.50
2017-08-13T10:54:37.918Z,27.40
2017-08-13T10:57:05.418Z,27.40
2017-08-13T10:59:32.885Z,27.40
2017-08-13T11:02:00.371Z,27.40
2017-08-13T11:04:27.861Z,27.30
2017-08-13T11:06:55.342Z,27.10
2017-08-13T11:09:23.621Z,27.10
2017-08-13T11:11:51.877Z,27.20
2017-08-13T11:14:19.364Z,27.20
2017-08-13T11:16:47.612Z,27.30
2017-08-13T11:19:15.108Z,27.30
2017-08-13T11:21:42.586Z,27.50
2017-08-13T11:24:10.065Z,27.50
2017-08-13T11:26:37.549Z,27.30
2017-08-13T11:29:05.027Z,27.60
2017-08-13T11:31:33.274Z,27.60
2017-08-13T11:34:00.759Z,27.50
2017-08-13T11:36:28.243Z,27.80
2017-08-13T11:38:55.746Z,27.80
2017-08-13T11:41:23.243Z,27.70
2017-08-13T11:43:50.729Z,27.30
2017-08-13T11:46:18.230Z,27.30
2017-08-13T11:48:45.713Z,27.40
2017-08-13T11:51:13.201Z,27.20
2017-08-13T11:53:40.689Z,26.90
2017-08-13T11:56:08.178Z,26.30
2017-08-13T11:58:35.667Z,26.50
2017-08-13T12:01:03.146Z,27.00
2017-08-13T12:03:30.648Z,27.10
2017-08-13T12:05:58.132Z,26.70
2017-08-13T12:08:26.394Z,26.70
2017-08-13T12:10:54.664Z,27.10
2017-08-13T12:13:22.147Z,27.00
2017-08-13T12:15:50.411Z,27.20
2017-08-13T12:18:17.898Z,27.20
2017-08-13T12:20:45.386Z,27.20
2017-08-13T12:23:12.868Z,27.20
2017-08-13T12:25:40.388Z,27.30
2017-08-13T12:28:07.869Z,27.10
2017-08-13T12:30:35.349Z,27.20
2017-08-13T12:33:02.842Z,27.10
2017-08-13T12:35:31.095Z,27.40
2017-08-13T12:37:59.361Z,27.40
2017-08-13T12:40:26.857Z,27.40
2017-08-13T12:42:54.346Z,27.50
2017-08-13T12:45:21.839Z,27.50
2017-08-13T12:47:49.332Z,27.50
2017-08-13T12:50:17.636Z,27.40
2017-08-13T12:52:45.122Z,27.40
2017-08-13T12:55:12.630Z,27.40
2017-08-13T12:57:40.128Z,27.50
2017-08-13T13:00:07.613Z,27.40
2017-08-13T13:02:35.109Z,27.30
2017-08-13T13:05:02.593Z,27.30
2017-08-13T13:07:30.078Z,27.70
2017-08-13T13:09:57.570Z,28.10
2017-08-13T13:12:25.051Z,28.20
2017-08-13T13:14:52.542Z,28.30
2017-08-13T13:17:20.043Z,28.10
2017-08-13T13:19:48.294Z,28.60
2017-08-13T13:22:15.774Z,28.50
2017-08-13T13:24:43.274Z,27.90
2017-08-13T13:27:10.774Z,28.10
2017-08-13T13:29:38.256Z,28.30
2017-08-13T13:32:06.511Z,28.60
2017-08-13T13:34:33.990Z,28.60
2017-08-13T13:37:01.470Z,28.30
2017-08-13T13:39:28.974Z,28.20
2017-08-13T13:41:56.448Z,28.00
2017-08-13T13:44:23.930Z,28.00
2017-08-13T13:46:52.186Z,27.90
2017-08-13T13:49:19.662Z,27.90
2017-08-13T13:51:47.973Z,27.90
2017-08-13T13:54:15.468Z,27.90
2017-08-13T13:56:42.949Z,28.50
2017-08-13T13:59:10.426Z,28.80
2017-08-13T14:01:38.685Z,28.30
2017-08-13T14:04:06.155Z,28.20
2017-08-13T14:06:34.402Z,28.60
2017-08-13T14:09:01.894Z,28.50
2017-08-13T14:11:30.142Z,28.60
2017-08-13T14:13:57.634Z,28.60
2017-08-13T14:16:25.879Z,27.90
2017-08-13T14:18:53.357Z,27.80
2017-08-13T14:21:20.838Z,27.80
2017-08-13T14:23:48.338Z,27.70
2017-08-13T14:26:15.848Z,28.40
2017-08-13T14:28:44.124Z,29.00
2017-08-13T14:31:11.614Z,29.00
2017-08-13T14:33:39.106Z,29.10
2017-08-13T14:36:06.591Z,29.00
2017-08-13T14:38:34.866Z,29.20
2017-08-13T14:41:02.347Z,29.10
2017-08-13T14:43:29.836Z,29.30
2017-08-13T14:45:57.329Z,29.40
2017-08-13T14:48:24.848Z,28.60
2017-08-13T14:50:52.321Z,28.90
2017-08-13T14:53:19.822Z,28.60
2017-08-13T14:55:47.288Z,28.20
2017-08-13T14:58:16.075Z,28.50
2017-08-13T15:00:44.729Z,28.30
2017-08-13T15:03:12.883Z,28.30
2017-08-13T15:05:40.839Z,28.80
2017-08-13T15:08:08.726Z,28.10
2017-08-13T15:10:37.191Z,27.50
2017-08-13T15:13:06.008Z,28.60
2017-08-13T15:15:35.478Z,28.80
2017-08-13T15:18:03.460Z,28.70
2017-08-13T15:20:31.235Z,28.80
2017-08-13T15:22:58.861Z,28.60
2017-08-13T15:25:26.619Z,28.60
2017-08-13T15:27:55.160Z,28.10
2017-08-13T15:30:23.215Z,28.10
2017-08-13T15:32:50.771Z,28.40
2017-08-13T15:35:18.266Z,28.30
2017-08-13T15:37:46.070Z,28.40
2017-08-13T15:40:14.167Z,28.60
2017-08-13T15:42:41.974Z,28.80
2017-08-13T15:45:10.388Z,28.80
2017-08-13T15:47:39.176Z,28.30
2017-08-13T15:50:08.016Z,27.90
2017-08-13T15:52:35.759Z,27.90
2017-08-13T15:55:03.627Z,28.00
2017-08-13T15:57:31.493Z,28.00
2017-08-13T15:59:59.249Z,27.90
2017-08-13T16:02:26.821Z,28.20
2017-08-13T16:04:54.422Z,28.00
2017-08-13T16:07:22.270Z,28.00
2017-08-13T16:09:50.217Z,27.90
2017-08-13T16:12:18.640Z,28.00
2017-08-13T16:14:46.192Z,28.00
2017-08-13T16:17:13.752Z,27.80
2017-08-13T16:19:42.156Z,28.00
2017-08-13T16:22:10.114Z,27.60
2017-08-13T16:24:38.288Z,27.60
2017-08-13T16:27:06.312Z,27.70
2017-08-13T16:29:34.014Z,27.60
2017-08-13T16:32:02.176Z,27.70
2017-08-13T16:34:29.883Z,27.60
2017-08-13T16:36:58.464Z,27.80
2017-08-13T16:39:26.477Z,27.80
2017-08-13T16:41:54.168Z,27.80
2017-08-13T16:44:21.789Z,27.80
2017-08-13T16:46:49.966Z,27.70
2017-08-13T16:49:17.816Z,27.80
2017-08-13T16:51:46.187Z,27.70
2017-08-13T16:54:13.667Z,27.60
2017-08-13T16:56:41.154Z,27.70
2017-08-13T16:59:08.656Z,27.80
2017-08-13T17:01:36.135Z,27.80
2017-08-13T17:06:40.380Z,27.70
2017-08-13T17:09:07.861Z,27.50
2017-08-13T17:11:35.344Z,27.60
2017-08-13T17:14:02.844Z,27.50
2017-08-13T17:16:31.099Z,27.40
2017-08-13T17:18:58.586Z,27.40
2017-08-13T17:21:26.087Z,27.40
2017-08-13T17:23:53.571Z,27.30
2017-08-13T17:26:21.085Z,27.40
2017-08-13T17:28:48.589Z,27.40
2017-08-13T17:31:16.062Z,27.30
2017-08-13T17:33:43.548Z,27.40
2017-08-13T17:36:11.052Z,27.30
2017-08-13T17:38:38.534Z,27.50
2017-08-13T17:41:06.020Z,27.40
2017-08-13T17:43:33.513Z,27.50
2017-08-13T17:46:00.994Z,27.70
2017-08-13T17:48:28.474Z,27.70
2017-08-13T17:50:55.974Z,27.50
2017-08-13T17:53:23.457Z,27.60
2017-08-13T17:55:50.928Z,27.50
2017-08-13T17:58:18.423Z,27.40
2017-08-13T18:00:45.921Z,27.50
2017-08-13T18:03:13.399Z,27.40
2017-08-13T18:05:40.895Z,27.40
2017-08-13T18:08:09.145Z,27.30
2017-08-13T18:10:36.621Z,27.30
2017-08-13T18:13:04.118Z,27.20
2017-08-13T18:15:31.607Z,27.20
2017-08-13T18:17:59.088Z,27.10
2017-08-13T18:20:26.588Z,27.10
2017-08-13T18:22:54.075Z,27.20
2017-08-13T18:25:21.553Z,27.10
2017-08-13T18:27:49.037Z,27.30
2017-08-13T18:30:16.530Z,27.20
2017-08-13T18:32:44.022Z,27.20
2017-08-13T18:35:11.519Z,27.10
2017-08-13T18:37:38.989Z,27.10
2017-08-13T18:40:06.466Z,27.10
2017-08-13T18:42:33.954Z,27.00
2017-08-13T18:45:01.432Z,26.90
2017-08-13T18:47:28.919Z,26.80
2017-08-13T18:49:57.185Z,26.70
2017-08-13T18:52:24.672Z,26.70
2017-08-13T18:54:52.167Z,26.70
2017-08-13T18:57:19.882Z,26.90
2017-08-13T18:59:47.366Z,27.00
2017-08-13T19:02:14.851Z,26.90
2017-08-13T19:04:42.353Z,26.90
2017-08-13T19:07:10.598Z,26.90
2017-08-13T19:09:38.099Z,26.80
2017-08-13T19:12:05.606Z,26.80
2017-08-13T19:14:33.093Z,26.90
2017-08-13T19:17:00.565Z,26.80
2017-08-13T19:19:28.067Z,26.80
2017-08-13T19:21:55.551Z,26.80
2017-08-13T19:24:23.033Z,26.80
2017-08-13T19:26:50.528Z,26.70
2017-08-13T19:29:18.019Z,26.70
2017-08-13T19:31:45.504Z,26.60
2017-08-13T19:34:13.003Z,26.60
2017-08-13T19:36:40.493Z,26.70
2017-08-13T19:39:07.990Z,26.70
2017-08-13T19:41:35.490Z,26.70
2017-08-13T19:44:02.974Z,26.70
2017-08-13T19:46:30.446Z,26.60
2017-08-13T19:48:57.942Z,26.60
2017-08-13T19:51:25.431Z,26.50
2017-08-13T19:53:52.927Z,26.50
2017-08-13T19:56:21.258Z,26.50
2017-08-13T19:58:48.751Z,26.50
2017-08-13T20:01:16.235Z,26.50
2017-08-13T20:03:44.497Z,26.40
2017-08-13T20:06:11.975Z,26.40
2017-08-13T20:08:39.463Z,26.40
2017-08-13T20:11:06.972Z,26.30
2017-08-13T20:13:34.446Z,26.30
2017-08-13T20:16:02.693Z,26.20
2017-08-13T20:18:30.191Z,26.20
2017-08-13T20:20:57.685Z,26.30
2017-08-13T20:23:25.166Z,26.20
2017-08-13T20:25:52.658Z,26.20
2017-08-13T20:28:20.141Z,26.10
2017-08-13T20:30:47.624Z,26.00
2017-08-13T20:33:15.117Z,26.00
2017-08-13T20:35:42.602Z,26.00
2017-08-13T20:38:10.092Z,26.00
2017-08-13T20:40:37.595Z,26.00
2017-08-13T20:43:05.087Z,25.90
2017-08-13T20:45:32.581Z,25.90
2017-08-13T20:48:00.091Z,25.90
2017-08-13T20:50:28.346Z,25.90
2017-08-13T20:52:55.826Z,25.80
2017-08-13T20:55:24.085Z,25.80
2017-08-13T20:57:51.583Z,25.80
2017-08-13T21:00:19.064Z,25.80
2017-08-13T21:02:46.566Z,25.80
2017-08-13T21:05:14.041Z,25.70
2017-08-13T21:07:42.281Z,25.70
2017-08-13T21:10:09.783Z,25.60
2017-08-13T21:12:37.260Z,25.60
2017-08-13T21:15:04.734Z,25.60
2017-08-13T21:17:32.244Z,25.50
2017-08-13T21:19:59.726Z,25.30
2017-08-13T21:22:27.213Z,25.30
2017-08-13T21:24:54.726Z,25.30
2017-08-13T21:27:22.987Z,25.30
2017-08-13T21:29:50.466Z,25.30
2017-08-13T21:32:18.739Z,25.40
2017-08-13T21:34:46.998Z,25.40
2017-08-13T21:37:14.478Z,25.40
2017-08-13T21:39:42.755Z,25.50
2017-08-13T21:42:11.018Z,25.50
2017-08-13T21:44:38.511Z,25.50
2017-08-13T21:47:06.010Z,25.50
2017-08-13T21:49:33.503Z,25.30
2017-08-13T21:52:00.987Z,25.30
2017-08-13T21:54:28.481Z,25.10
2017-08-13T21:56:55.959Z,24.90
2017-08-13T21:59:23.447Z,24.90
2017-08-13T22:01:51.718Z,25.00
2017-08-13T22:04:19.202Z,25.00
2017-08-13T22:06:47.463Z,25.10
2017-08-13T22:09:15.719Z,25.10
2017-08-13T22:11:43.211Z,25.00
2017-08-13T22:14:10.709Z,25.00
2017-08-13T22:16:38.214Z,24.80
2017-08-13T22:19:06.469Z,25.00
2017-08-13T22:21:33.958Z,24.90
2017-08-13T22:24:01.436Z,25.00
2017-08-13T22:26:28.914Z,24.80
2017-08-13T22:28:56.399Z,24.80
2017-08-13T22:31:23.903Z,24.90
2017-08-13T22:33:51.373Z,25.00
2017-08-13T22:36:18.853Z,25.00
2017-08-13T22:38:46.359Z,25.00
2017-08-13T22:41:14.636Z,25.00
2017-08-13T22:43:42.883Z,24.80
2017-08-13T22:46:10.371Z,24.70
2017-08-13T22:48:38.634Z,24.90
2017-08-13T22:51:06.121Z,24.90
2017-08-13T22:53:33.666Z,24.80
2017-08-13T22:56:01.144Z,24.70
2017-08-13T22:58:28.621Z,24.60
2017-08-13T23:00:56.123Z,24.70
2017-08-13T23:03:23.612Z,24.60
2017-08-13T23:05:51.854Z,24.60
2017-08-13T23:08:19.354Z,24.50
2017-08-13T23:10:46.834Z,24.80
2017-08-13T23:13:14.332Z,24.70
2017-08-13T23:15:41.831Z,24.80
2017-08-13T23:18:09.320Z,24.60
2017-08-13T23:20:36.806Z,24.40
2017-08-13T23:23:04.308Z,24.30
2017-08-13T23:25:32.556Z,24.50
2017-08-13T23:28:00.037Z,24.40
2017-08-13T23:30:28.318Z,24.40
2017-08-13T23:32:57.183Z,24.30
2017-08-13T23:35:24.662Z,24.20
2017-08-13T23:37:52.926Z,24.30
2017-08-13T23:40:20.407Z,24.20
2017-08-13T23:42:47.893Z,24.00
2017-08-13T23:45:15.394Z,23.80
2017-08-13T23:47:42.887Z,23.90
2017-08-13T23:50:11.123Z,23.90
2017-08-13T23:52:38.613Z,23.80
2017-08-13T23:55:06.853Z,24.10
2017-08-13T23:57:34.345Z,24.00
